sensor_id;sensor_type;location;lat;lon;timestamp;pressure;altitude;pressure_sealevel;temperature;humidity
46087;BME280;31824;49.648;8.640;2023-09-08T00:02:29;100479.28;;;17.44;100.00
46087;BME280;31824;49.648;8.640;2023-09-08T00:05:31;100480.63;;;17.50;100.00
46087;BME280;31824;49.648;8.640;2023-09-08T00:08:32;100478.44;;;17.45;100.00
46087;BME280;31824;49.648;8.640;2023-09-08T00:11:35;100469.38;;;17.41;100.00
46087;BME280;31824;49.648;8.640;2023-09-08T00:14:38;100468.84;;;17.33;100.00
46087;BME280;31824;49.648;8.640;2023-09-08T00:17:40;100466.78;;;17.29;100.00
46087;BME280;31824;49.648;8.640;2023-09-08T00:20:42;100471.81;;;17.38;100.00
46087;BME280;31824;49.648;8.640;2023-09-08T00:23:44;100468.84;;;17.33;100.00
46087;BME280;31824;49.648;8.640;2023-09-08T00:26:45;100463.25;;;17.42;100.00
46087;BME280;31824;49.648;8.640;2023-09-08T00:29:48;100461.94;;;17.62;100.00
46087;BME280;31824;49.648;8.640;2023-09-08T00:32:50;100460.41;;;17.52;100.00
46087;BME280;31824;49.648;8.640;2023-09-08T00:35:52;100463.56;;;17.47;100.00
46087;BME280;31824;49.648;8.640;2023-09-08T00:38:55;100456.94;;;17.53;100.00
46087;BME280;31824;49.648;8.640;2023-09-08T00:41:56;100463.59;;;17.60;100.00
46087;BME280;31824;49.648;8.640;2023-09-08T00:44:59;100456.19;;;17.43;100.00
46087;BME280;31824;49.648;8.640;2023-09-08T00:48:01;100452.50;;;17.27;100.00
46087;BME280;31824;49.648;8.640;2023-09-08T00:51:03;100465.03;;;17.30;100.00
46087;BME280;31824;49.648;8.640;2023-09-08T00:54:09;100453.44;;;17.16;100.00
46087;BME280;31824;49.648;8.640;2023-09-08T00:57:11;100452.03;;;17.21;100.00
46087;BME280;31824;49.648;8.640;2023-09-08T01:00:15;100455.41;;;17.18;100.00
46087;BME280;31824;49.648;8.640;2023-09-08T01:03:17;100451.63;;;17.15;100.00
46087;BME280;31824;49.648;8.640;2023-09-08T01:06:19;100454.00;;;17.24;100.00
46087;BME280;31824;49.648;8.640;2023-09-08T01:09:21;100457.34;;;17.21;100.00
46087;BME280;31824;49.648;8.640;2023-09-08T01:12:23;100458.66;;;17.14;100.00
46087;BME280;31824;49.648;8.640;2023-09-08T01:15:27;100460.88;;;17.33;100.00
46087;BME280;31824;49.648;8.640;2023-09-08T01:18:29;100464.19;;;17.17;100.00
46087;BME280;31824;49.648;8.640;2023-09-08T01:25:07;100456.00;;;17.14;100.00
46087;BME280;31824;49.648;8.640;2023-09-08T01:28:12;100451.63;;;17.15;100.00
46087;BME280;31824;49.648;8.640;2023-09-08T01:31:14;100456.53;;;16.97;100.00
46087;BME280;31824;49.648;8.640;2023-09-08T01:34:17;100455.53;;;16.95;100.00
46087;BME280;31824;49.648;8.640;2023-09-08T01:37:22;100455.19;;;16.90;100.00
46087;BME280;31824;49.648;8.640;2023-09-08T01:40:25;100461.50;;;17.04;100.00
46087;BME280;31824;49.648;8.640;2023-09-08T01:43:27;100455.34;;;17.05;100.00
46087;BME280;31824;49.648;8.640;2023-09-08T01:46:31;100447.94;;;17.13;100.00
46087;BME280;31824;49.648;8.640;2023-09-08T01:49:33;100445.03;;;16.84;100.00
46087;BME280;31824;49.648;8.640;2023-09-08T01:52:35;100443.16;;;16.95;100.00
46087;BME280;31824;49.648;8.640;2023-09-08T01:55:38;100441.97;;;17.03;100.00
46087;BME280;31824;49.648;8.640;2023-09-08T01:58:40;100445.19;;;17.11;100.00
46087;BME280;31824;49.648;8.640;2023-09-08T02:01:41;100446.47;;;17.04;100.00
46087;BME280;31824;49.648;8.640;2023-09-08T02:04:43;100450.13;;;16.93;100.00
46087;BME280;31824;49.648;8.640;2023-09-08T02:07:45;100455.53;;;16.95;100.00
46087;BME280;31824;49.648;8.640;2023-09-08T02:10:48;100454.38;;;16.91;100.00
46087;BME280;31824;49.648;8.640;2023-09-08T02:13:50;100448.78;;;16.63;100.00
46087;BME280;31824;49.648;8.640;2023-09-08T02:16:52;100450.50;;;16.74;100.00
46087;BME280;31824;49.648;8.640;2023-09-08T02:19:53;100454.09;;;16.63;100.00
46087;BME280;31824;49.648;8.640;2023-09-08T02:22:55;100452.63;;;16.54;100.00
46087;BME280;31824;49.648;8.640;2023-09-08T02:25:58;100446.31;;;16.41;100.00
46087;BME280;31824;49.648;8.640;2023-09-08T02:29:00;100454.00;;;16.49;100.00
46087;BME280;31824;49.648;8.640;2023-09-08T02:32:03;100448.84;;;16.51;100.00
46087;BME280;31824;49.648;8.640;2023-09-08T02:35:05;100459.56;;;16.41;100.00
46087;BME280;31824;49.648;8.640;2023-09-08T02:38:09;100457.59;;;16.50;100.00
46087;BME280;31824;49.648;8.640;2023-09-08T02:41:12;100460.28;;;16.38;100.00
46087;BME280;31824;49.648;8.640;2023-09-08T02:44:15;100456.72;;;16.26;100.00
46087;BME280;31824;49.648;8.640;2023-09-08T02:47:18;100461.81;;;16.23;100.00
46087;BME280;31824;49.648;8.640;2023-09-08T02:50:21;100465.59;;;16.26;100.00
46087;BME280;31824;49.648;8.640;2023-09-08T02:53:23;100462.16;;;16.03;100.00
46087;BME280;31824;49.648;8.640;2023-09-08T02:56:26;100466.78;;;16.06;100.00
46087;BME280;31824;49.648;8.640;2023-09-08T02:59:28;100467.22;;;16.00;100.00
46087;BME280;31824;49.648;8.640;2023-09-08T03:02:30;100469.06;;;16.13;100.00
46087;BME280;31824;49.648;8.640;2023-09-08T03:05:32;100470.34;;;16.07;100.00
46087;BME280;31824;49.648;8.640;2023-09-08T03:08:34;100462.50;;;16.08;100.00
46087;BME280;31824;49.648;8.640;2023-09-08T03:11:39;100468.28;;;16.14;100.00
46087;BME280;31824;49.648;8.640;2023-09-08T03:14:41;100469.19;;;16.15;100.00
46087;BME280;31824;49.648;8.640;2023-09-08T03:17:43;100476.00;;;15.99;100.00
46087;BME280;31824;49.648;8.640;2023-09-08T03:20:48;100472.19;;;15.96;100.00
46087;BME280;31824;49.648;8.640;2023-09-08T03:23:50;100464.56;;;16.00;100.00
46087;BME280;31824;49.648;8.640;2023-09-08T03:26:53;100462.91;;;15.79;100.00
46087;BME280;31824;49.648;8.640;2023-09-08T03:29:55;100468.94;;;15.76;100.00
46087;BME280;31824;49.648;8.640;2023-09-08T03:33:01;100469.25;;;15.69;100.00
46087;BME280;31824;49.648;8.640;2023-09-08T03:36:03;100471.19;;;15.60;100.00
46087;BME280;31824;49.648;8.640;2023-09-08T03:39:05;100474.41;;;15.56;100.00
46087;BME280;31824;49.648;8.640;2023-09-08T03:42:08;100478.31;;;15.61;100.00
46087;BME280;31824;49.648;8.640;2023-09-08T03:45:10;100474.31;;;15.66;100.00
46087;BME280;31824;49.648;8.640;2023-09-08T03:48:12;100475.69;;;15.73;100.00
46087;BME280;31824;49.648;8.640;2023-09-08T03:51:13;100477.19;;;15.69;100.00
46087;BME280;31824;49.648;8.640;2023-09-08T03:54:15;100476.88;;;15.76;100.00
46087;BME280;31824;49.648;8.640;2023-09-08T03:57:18;100474.28;;;15.54;100.00
46087;BME280;31824;49.648;8.640;2023-09-08T04:00:20;100477.53;;;15.62;100.00
46087;BME280;31824;49.648;8.640;2023-09-08T04:03:23;100478.75;;;15.89;100.00
46087;BME280;31824;49.648;8.640;2023-09-08T04:06:26;100493.94;;;15.80;100.00
46087;BME280;31824;49.648;8.640;2023-09-08T04:09:29;100488.47;;;15.55;100.00
46087;BME280;31824;49.648;8.640;2023-09-08T04:12:34;100490.81;;;15.28;100.00
46087;BME280;31824;49.648;8.640;2023-09-08T04:15:36;100489.94;;;15.51;100.00
46087;BME280;31824;49.648;8.640;2023-09-08T04:18:38;100492.59;;;15.51;100.00
46087;BME280;31824;49.648;8.640;2023-09-08T04:21:40;100488.50;;;15.32;100.00
46087;BME280;31824;49.648;8.640;2023-09-08T04:24:42;100487.59;;;15.32;100.00
46087;BME280;31824;49.648;8.640;2023-09-08T04:27:45;100489.19;;;15.30;100.00
46087;BME280;31824;49.648;8.640;2023-09-08T04:30:47;100490.28;;;15.10;100.00
46087;BME280;31824;49.648;8.640;2023-09-08T04:33:49;100496.59;;;15.34;100.00
46087;BME280;31824;49.648;8.640;2023-09-08T04:36:51;100500.59;;;15.29;100.00
46087;BME280;31824;49.648;8.640;2023-09-08T04:39:53;100502.75;;;15.23;100.00
46087;BME280;31824;49.648;8.640;2023-09-08T04:42:56;100508.13;;;15.46;100.00
46087;BME280;31824;49.648;8.640;2023-09-08T04:45:57;100506.56;;;15.26;100.00
46087;BME280;31824;49.648;8.640;2023-09-08T04:48:59;100510.28;;;15.06;100.00
46087;BME280;31824;49.648;8.640;2023-09-08T04:52:02;100508.50;;;14.95;100.00
46087;BME280;31824;49.648;8.640;2023-09-08T04:55:05;100514.28;;;15.01;100.00
46087;BME280;31824;49.648;8.640;2023-09-08T04:58:08;100510.59;;;14.99;100.00
46087;BME280;31824;49.648;8.640;2023-09-08T05:01:10;100522.28;;;15.13;100.00
46087;BME280;31824;49.648;8.640;2023-09-08T05:04:12;100530.84;;;15.21;100.00
46087;BME280;31824;49.648;8.640;2023-09-08T05:07:14;100519.97;;;15.17;100.00
46087;BME280;31824;49.648;8.640;2023-09-08T05:10:17;100513.38;;;15.00;100.00
46087;BME280;31824;49.648;8.640;2023-09-08T05:13:20;100516.75;;;15.10;100.00
46087;BME280;31824;49.648;8.640;2023-09-08T05:16:33;100510.13;;;15.27;100.00
46087;BME280;31824;49.648;8.640;2023-09-08T05:19:40;100513.50;;;15.36;100.00
46087;BME280;31824;49.648;8.640;2023-09-08T05:22:42;100520.13;;;15.19;100.00
46087;BME280;31824;49.648;8.640;2023-09-08T05:25:44;100523.81;;;15.21;100.00
46087;BME280;31824;49.648;8.640;2023-09-08T05:28:48;100526.09;;;15.16;100.00
46087;BME280;31824;49.648;8.640;2023-09-08T05:31:50;100531.94;;;15.12;100.00
46087;BME280;31824;49.648;8.640;2023-09-08T05:34:52;100531.41;;;15.28;100.00
46087;BME280;31824;49.648;8.640;2023-09-08T05:37:54;100528.81;;;15.40;100.00
46087;BME280;31824;49.648;8.640;2023-09-08T05:40:56;100533.50;;;15.32;100.00
46087;BME280;31824;49.648;8.640;2023-09-08T05:43:59;100532.19;;;15.15;100.00
46087;BME280;31824;49.648;8.640;2023-09-08T05:47:02;100531.91;;;15.34;100.00
46087;BME280;31824;49.648;8.640;2023-09-08T05:50:05;100541.09;;;15.28;100.00
46087;BME280;31824;49.648;8.640;2023-09-08T05:53:07;100540.19;;;15.39;100.00
46087;BME280;31824;49.648;8.640;2023-09-08T05:56:10;100540.59;;;15.22;100.00
46087;BME280;31824;49.648;8.640;2023-09-08T05:59:15;100539.56;;;15.19;100.00
46087;BME280;31824;49.648;8.640;2023-09-08T06:02:18;100548.69;;;15.23;100.00
46087;BME280;31824;49.648;8.640;2023-09-08T06:05:19;100539.25;;;15.27;100.00
46087;BME280;31824;49.648;8.640;2023-09-08T06:08:21;100541.59;;;15.46;100.00
46087;BME280;31824;49.648;8.640;2023-09-08T06:11:23;100543.25;;;15.56;100.00
46087;BME280;31824;49.648;8.640;2023-09-08T06:14:26;100536.47;;;15.59;100.00
46087;BME280;31824;49.648;8.640;2023-09-08T06:20:24;100535.00;;;15.75;100.00
46087;BME280;31824;49.648;8.640;2023-09-08T06:23:27;100532.47;;;15.64;100.00
46087;BME280;31824;49.648;8.640;2023-09-08T06:26:29;100534.59;;;15.92;100.00
46087;BME280;31824;49.648;8.640;2023-09-08T06:29:31;100535.88;;;15.97;100.00
46087;BME280;31824;49.648;8.640;2023-09-08T06:32:33;100541.09;;;16.31;100.00
46087;BME280;31824;49.648;8.640;2023-09-08T06:35:37;100534.63;;;16.51;100.00
46087;BME280;31824;49.648;8.640;2023-09-08T06:38:39;100530.25;;;16.40;100.00
46087;BME280;31824;49.648;8.640;2023-09-08T06:41:40;100529.91;;;16.35;100.00
46087;BME280;31824;49.648;8.640;2023-09-08T06:44:45;100529.66;;;16.56;100.00
46087;BME280;31824;49.648;8.640;2023-09-08T06:47:47;100522.84;;;16.71;100.00
46087;BME280;31824;49.648;8.640;2023-09-08T06:50:54;100516.19;;;17.02;100.00
46087;BME280;31824;49.648;8.640;2023-09-08T06:53:59;100524.84;;;16.99;100.00
46087;BME280;31824;49.648;8.640;2023-09-08T06:57:10;100533.00;;;17.14;100.00
46087;BME280;31824;49.648;8.640;2023-09-08T07:00:13;100527.19;;;17.20;100.00
46087;BME280;31824;49.648;8.640;2023-09-08T07:03:15;100533.22;;;17.43;100.00
46087;BME280;31824;49.648;8.640;2023-09-08T07:06:19;100530.94;;;17.35;100.00
46087;BME280;31824;49.648;8.640;2023-09-08T07:09:24;100524.94;;;17.38;100.00
46087;BME280;31824;49.648;8.640;2023-09-08T07:12:26;100524.91;;;17.63;100.00
46087;BME280;31824;49.648;8.640;2023-09-08T07:15:28;100527.91;;;17.81;100.00
46087;BME280;31824;49.648;8.640;2023-09-08T07:18:31;100519.41;;;18.12;100.00
46087;BME280;31824;49.648;8.640;2023-09-08T07:21:40;100520.84;;;18.34;100.00
46087;BME280;31824;49.648;8.640;2023-09-08T07:24:42;100509.13;;;18.59;100.00
46087;BME280;31824;49.648;8.640;2023-09-08T07:27:44;100515.94;;;18.82;100.00
46087;BME280;31824;49.648;8.640;2023-09-08T07:30:46;100509.81;;;19.25;100.00
46087;BME280;31824;49.648;8.640;2023-09-08T07:33:48;100511.44;;;19.66;100.00
46087;BME280;31824;49.648;8.640;2023-09-08T07:36:52;100515.25;;;20.14;100.00
46087;BME280;31824;49.648;8.640;2023-09-08T07:39:53;100513.94;;;21.00;100.00
46087;BME280;31824;49.648;8.640;2023-09-08T07:42:56;100524.97;;;20.75;100.00
46087;BME280;31824;49.648;8.640;2023-09-08T07:45:58;100519.13;;;20.66;100.00
46087;BME280;31824;49.648;8.640;2023-09-08T07:49:00;100529.88;;;20.67;100.00
46087;BME280;31824;49.648;8.640;2023-09-08T07:52:04;100536.56;;;20.90;100.00
46087;BME280;31824;49.648;8.640;2023-09-08T07:55:07;100527.78;;;20.93;100.00
46087;BME280;31824;49.648;8.640;2023-09-08T07:58:09;100533.97;;;20.92;100.00
46087;BME280;31824;49.648;8.640;2023-09-08T08:01:12;100534.47;;;21.01;100.00
46087;BME280;31824;49.648;8.640;2023-09-08T08:04:14;100536.06;;;20.98;100.00
46087;BME280;31824;49.648;8.640;2023-09-08T08:07:17;100541.31;;;20.96;100.00
46087;BME280;31824;49.648;8.640;2023-09-08T08:10:19;100540.66;;;21.00;100.00
46087;BME280;31824;49.648;8.640;2023-09-08T08:13:21;100542.06;;;21.10;100.00
46087;BME280;31824;49.648;8.640;2023-09-08T08:16:23;100547.59;;;21.13;100.00
46087;BME280;31824;49.648;8.640;2023-09-08T08:19:26;100548.75;;;21.18;100.00
46087;BME280;31824;49.648;8.640;2023-09-08T08:22:30;100553.13;;;21.33;100.00
46087;BME280;31824;49.648;8.640;2023-09-08T08:25:32;100544.84;;;21.28;100.00
46087;BME280;31824;49.648;8.640;2023-09-08T08:28:34;100551.56;;;21.53;100.00
46087;BME280;31824;49.648;8.640;2023-09-08T08:31:38;100546.00;;;21.50;100.00
46087;BME280;31824;49.648;8.640;2023-09-08T08:34:40;100547.56;;;21.61;100.00
46087;BME280;31824;49.648;8.640;2023-09-08T08:37:43;100551.22;;;21.63;100.00
46087;BME280;31824;49.648;8.640;2023-09-08T08:40:45;100549.13;;;21.74;100.00
46087;BME280;31824;49.648;8.640;2023-09-08T08:43:47;100550.47;;;21.66;100.00
46087;BME280;31824;49.648;8.640;2023-09-08T08:46:50;100548.38;;;21.77;100.00
46087;BME280;31824;49.648;8.640;2023-09-08T08:49:53;100549.38;;;21.79;100.00
46087;BME280;31824;49.648;8.640;2023-09-08T08:52:56;100546.31;;;21.89;100.00
46087;BME280;31824;49.648;8.640;2023-09-08T08:55:58;100556.00;;;22.03;100.00
46087;BME280;31824;49.648;8.640;2023-09-08T08:59:01;100544.09;;;22.15;100.00
46087;BME280;31824;49.648;8.640;2023-09-08T09:02:04;100550.66;;;22.03;100.00
46087;BME280;31824;49.648;8.640;2023-09-08T09:05:07;100544.41;;;22.21;100.00
46087;BME280;31824;49.648;8.640;2023-09-08T09:08:11;100558.09;;;22.27;100.00
46087;BME280;31824;49.648;8.640;2023-09-08T09:11:16;100544.47;;;22.39;100.00
46087;BME280;31824;49.648;8.640;2023-09-08T09:14:18;100551.47;;;22.37;100.00
46087;BME280;31824;49.648;8.640;2023-09-08T09:17:20;100547.06;;;22.55;100.00
46087;BME280;31824;49.648;8.640;2023-09-08T09:20:23;100545.88;;;22.68;100.00
46087;BME280;31824;49.648;8.640;2023-09-08T09:23:31;100553.22;;;22.72;100.00
46087;BME280;31824;49.648;8.640;2023-09-08T09:26:33;100550.25;;;22.66;100.00
46087;BME280;31824;49.648;8.640;2023-09-08T09:29:44;100550.69;;;22.93;100.00
46087;BME280;31824;49.648;8.640;2023-09-08T09:32:47;100548.84;;;23.10;100.00
46087;BME280;31824;49.648;8.640;2023-09-08T09:35:51;100550.91;;;23.16;100.00
46087;BME280;31824;49.648;8.640;2023-09-08T09:38:58;100550.47;;;23.26;100.00
46087;BME280;31824;49.648;8.640;2023-09-08T09:41:59;100548.53;;;23.42;100.00
46087;BME280;31824;49.648;8.640;2023-09-08T09:45:04;100553.09;;;23.64;100.00
46087;BME280;31824;49.648;8.640;2023-09-08T09:48:08;100547.94;;;23.69;100.00
46087;BME280;31824;49.648;8.640;2023-09-08T09:51:16;100546.91;;;23.65;100.00
46087;BME280;31824;49.648;8.640;2023-09-08T09:54:20;100544.09;;;24.03;100.00
46087;BME280;31824;49.648;8.640;2023-09-08T09:57:22;100551.88;;;23.77;100.00
46087;BME280;31824;49.648;8.640;2023-09-08T10:00:25;100546.06;;;23.87;100.00
46087;BME280;31824;49.648;8.640;2023-09-08T10:03:27;100541.63;;;24.07;100.00
46087;BME280;31824;49.648;8.640;2023-09-08T10:06:31;100540.31;;;24.19;100.00
46087;BME280;31824;49.648;8.640;2023-09-08T10:09:35;100539.13;;;24.12;100.00
46087;BME280;31824;49.648;8.640;2023-09-08T10:12:38;100537.56;;;24.17;100.00
46087;BME280;31824;49.648;8.640;2023-09-08T10:15:42;100526.63;;;24.13;100.00
46087;BME280;31824;49.648;8.640;2023-09-08T10:18:45;100526.28;;;24.26;100.00
46087;BME280;31824;49.648;8.640;2023-09-08T10:21:50;100533.03;;;24.37;100.00
46087;BME280;31824;49.648;8.640;2023-09-08T10:24:55;100525.94;;;24.39;100.00
46087;BME280;31824;49.648;8.640;2023-09-08T10:28:00;100525.91;;;24.82;100.00
46087;BME280;31824;49.648;8.640;2023-09-08T10:31:02;100526.84;;;24.82;100.00
46087;BME280;31824;49.648;8.640;2023-09-08T10:34:05;100527.06;;;24.88;100.00
46087;BME280;31824;49.648;8.640;2023-09-08T10:37:18;100526.09;;;24.86;100.00
46087;BME280;31824;49.648;8.640;2023-09-08T10:40:23;100511.41;;;25.01;100.00
46087;BME280;31824;49.648;8.640;2023-09-08T10:43:25;100517.69;;;25.24;100.00
46087;BME280;31824;49.648;8.640;2023-09-08T10:46:28;100515.25;;;25.30;100.00
46087;BME280;31824;49.648;8.640;2023-09-08T10:49:34;100515.25;;;25.30;100.00
46087;BME280;31824;49.648;8.640;2023-09-08T10:52:36;100521.47;;;25.52;100.00
46087;BME280;31824;49.648;8.640;2023-09-08T10:55:44;100513.84;;;25.40;100.00
46087;BME280;31824;49.648;8.640;2023-09-08T10:59:07;100517.03;;;25.30;100.00
46087;BME280;31824;49.648;8.640;2023-09-08T11:02:32;100511.94;;;25.61;100.00
46087;BME280;31824;49.648;8.640;2023-09-08T11:05:34;100511.34;;;25.70;100.00
46087;BME280;31824;49.648;8.640;2023-09-08T11:08:38;100510.34;;;25.92;100.00
46087;BME280;31824;49.648;8.640;2023-09-08T11:11:41;100507.28;;;26.06;100.00
46087;BME280;31824;49.648;8.640;2023-09-08T11:14:43;100511.66;;;26.29;100.00
46087;BME280;31824;49.648;8.640;2023-09-08T11:17:45;100503.25;;;26.20;100.00
46087;BME280;31824;49.648;8.640;2023-09-08T11:20:52;100497.75;;;25.91;100.00
46087;BME280;31824;49.648;8.640;2023-09-08T11:23:54;100495.63;;;26.34;100.00
46087;BME280;31824;49.648;8.640;2023-09-08T11:26:59;100498.22;;;26.58;100.00
46087;BME280;31824;49.648;8.640;2023-09-08T11:30:02;100492.28;;;26.98;100.00
46087;BME280;31824;49.648;8.640;2023-09-08T11:33:13;100497.56;;;27.23;100.00
46087;BME280;31824;49.648;8.640;2023-09-08T11:36:15;100492.53;;;27.05;100.00
46087;BME280;31824;49.648;8.640;2023-09-08T11:39:18;100492.13;;;26.91;100.00
46087;BME280;31824;49.648;8.640;2023-09-08T11:42:22;100485.41;;;26.78;100.00
46087;BME280;31824;49.648;8.640;2023-09-08T11:45:24;100481.63;;;27.02;100.00
46087;BME280;31824;49.648;8.640;2023-09-08T11:48:26;100481.16;;;27.17;100.00
46087;BME280;31824;49.648;8.640;2023-09-08T11:51:27;100480.28;;;27.17;100.00
46087;BME280;31824;49.648;8.640;2023-09-08T11:54:30;100476.84;;;27.22;100.00
46087;BME280;31824;49.648;8.640;2023-09-08T11:57:34;100479.69;;;27.27;100.00
46087;BME280;31824;49.648;8.640;2023-09-08T12:00:36;100472.56;;;27.30;100.00
46087;BME280;31824;49.648;8.640;2023-09-08T12:03:51;100474.00;;;27.48;100.00
46087;BME280;31824;49.648;8.640;2023-09-08T12:06:54;100468.47;;;28.09;100.00
46087;BME280;31824;49.648;8.640;2023-09-08T12:09:57;100470.75;;;27.60;100.00
46087;BME280;31824;49.648;8.640;2023-09-08T12:13:02;100464.63;;;27.67;100.00
46087;BME280;31824;49.648;8.640;2023-09-08T12:16:17;100462.03;;;27.70;100.00
46087;BME280;31824;49.648;8.640;2023-09-08T12:19:28;100460.75;;;28.26;100.00
46087;BME280;31824;49.648;8.640;2023-09-08T12:22:32;100465.16;;;28.57;100.00
46087;BME280;31824;49.648;8.640;2023-09-08T12:25:44;100459.19;;;27.99;100.00
46087;BME280;31824;49.648;8.640;2023-09-08T12:28:47;100453.91;;;28.04;100.00
46087;BME280;31824;49.648;8.640;2023-09-08T12:31:50;100454.50;;;28.27;100.00
46087;BME280;31824;49.648;8.640;2023-09-08T12:34:53;100445.41;;;27.88;100.00
46087;BME280;31824;49.648;8.640;2023-09-08T12:37:59;100447.88;;;28.51;100.00
46087;BME280;31824;49.648;8.640;2023-09-08T12:41:01;100450.31;;;28.78;100.00
46087;BME280;31824;49.648;8.640;2023-09-08T12:44:05;100440.97;;;29.49;100.00
46087;BME280;31824;49.648;8.640;2023-09-08T12:47:09;100448.00;;;28.96;100.00
46087;BME280;31824;49.648;8.640;2023-09-08T12:50:11;100453.94;;;29.21;100.00
46087;BME280;31824;49.648;8.640;2023-09-08T12:53:14;100447.41;;;29.11;100.00
46087;BME280;31824;49.648;8.640;2023-09-08T12:56:16;100435.75;;;28.71;100.00
46087;BME280;31824;49.648;8.640;2023-09-08T12:59:21;100444.88;;;29.19;100.00
46087;BME280;31824;49.648;8.640;2023-09-08T13:02:23;100433.41;;;28.88;100.00
46087;BME280;31824;49.648;8.640;2023-09-08T13:05:24;100444.47;;;29.01;100.00
46087;BME280;31824;49.648;8.640;2023-09-08T13:08:26;100434.84;;;29.13;100.00
46087;BME280;31824;49.648;8.640;2023-09-08T13:11:28;100430.47;;;29.20;100.00
46087;BME280;31824;49.648;8.640;2023-09-08T13:14:31;100437.19;;;29.85;100.00
46087;BME280;31824;49.648;8.640;2023-09-08T13:17:33;100434.03;;;30.14;100.00
46087;BME280;31824;49.648;8.640;2023-09-08T13:20:35;100429.91;;;30.39;100.00
46087;BME280;31824;49.648;8.640;2023-09-08T13:23:37;100427.81;;;30.81;100.00
46087;BME280;31824;49.648;8.640;2023-09-08T13:26:39;100424.63;;;30.47;100.00
46087;BME280;31824;49.648;8.640;2023-09-08T13:29:44;100415.13;;;30.77;100.00
46087;BME280;31824;49.648;8.640;2023-09-08T13:32:45;100405.31;;;30.27;100.00
46087;BME280;31824;49.648;8.640;2023-09-08T13:35:47;100401.00;;;30.38;100.00
46087;BME280;31824;49.648;8.640;2023-09-08T13:38:49;100400.91;;;29.78;100.00
46087;BME280;31824;49.648;8.640;2023-09-08T13:41:52;100403.41;;;30.20;100.00
46087;BME280;31824;49.648;8.640;2023-09-08T13:44:55;100410.25;;;30.53;100.00
46087;BME280;31824;49.648;8.640;2023-09-08T13:47:58;100400.09;;;30.41;100.00
46087;BME280;31824;49.648;8.640;2023-09-08T13:51:01;100400.19;;;29.87;100.00
46087;BME280;31824;49.648;8.640;2023-09-08T13:54:07;100399.53;;;30.04;100.00
46087;BME280;31824;49.648;8.640;2023-09-08T13:57:09;100396.19;;;30.22;100.00
46087;BME280;31824;49.648;8.640;2023-09-08T14:00:16;100403.66;;;30.37;100.00
46087;BME280;31824;49.648;8.640;2023-09-08T14:03:23;100397.19;;;30.27;100.00
46087;BME280;31824;49.648;8.640;2023-09-08T14:06:31;100401.50;;;30.12;100.00
46087;BME280;31824;49.648;8.640;2023-09-08T14:09:37;100396.50;;;30.42;100.00
46087;BME280;31824;49.648;8.640;2023-09-08T14:12:42;100401.13;;;30.46;100.00
46087;BME280;31824;49.648;8.640;2023-09-08T14:15:45;100390.56;;;31.43;100.00
46087;BME280;31824;49.648;8.640;2023-09-08T14:18:47;100385.56;;;31.00;100.00
46087;BME280;31824;49.648;8.640;2023-09-08T14:21:49;100387.72;;;30.58;100.00
46087;BME280;31824;49.648;8.640;2023-09-08T14:24:51;100388.66;;;31.31;100.00
46087;BME280;31824;49.648;8.640;2023-09-08T14:27:53;100387.59;;;30.49;100.00
46087;BME280;31824;49.648;8.640;2023-09-08T14:30:56;100379.56;;;30.55;100.00
46087;BME280;31824;49.648;8.640;2023-09-08T14:33:58;100381.72;;;30.81;100.00
46087;BME280;31824;49.648;8.640;2023-09-08T14:36:59;100380.53;;;31.34;100.00
46087;BME280;31824;49.648;8.640;2023-09-08T14:40:06;100384.28;;;30.69;100.00
46087;BME280;31824;49.648;8.640;2023-09-08T14:43:07;100378.28;;;30.96;100.00
46087;BME280;31824;49.648;8.640;2023-09-08T14:46:11;100379.84;;;30.77;100.00
46087;BME280;31824;49.648;8.640;2023-09-08T14:49:13;100377.66;;;30.48;100.00
46087;BME280;31824;49.648;8.640;2023-09-08T14:52:16;100364.13;;;31.20;100.00
46087;BME280;31824;49.648;8.640;2023-09-08T14:55:22;100360.97;;;30.85;100.00
46087;BME280;31824;49.648;8.640;2023-09-08T14:58:24;100364.72;;;30.96;100.00
46087;BME280;31824;49.648;8.640;2023-09-08T15:01:27;100361.44;;;31.25;100.00
46087;BME280;31824;49.648;8.640;2023-09-08T15:04:29;100362.72;;;30.81;100.00
46087;BME280;31824;49.648;8.640;2023-09-08T15:07:31;100363.28;;;31.29;100.00
46087;BME280;31824;49.648;8.640;2023-09-08T15:10:33;100366.19;;;31.46;100.00
46087;BME280;31824;49.648;8.640;2023-09-08T15:13:35;100359.03;;;30.76;100.00
46087;BME280;31824;49.648;8.640;2023-09-08T15:16:38;100368.41;;;30.37;100.00
46087;BME280;31824;49.648;8.640;2023-09-08T15:19:40;100361.19;;;30.34;100.00
46087;BME280;31824;49.648;8.640;2023-09-08T15:22:42;100364.97;;;30.45;100.00
46087;BME280;31824;49.648;8.640;2023-09-08T15:25:50;100370.63;;;30.64;100.00
46087;BME280;31824;49.648;8.640;2023-09-08T15:28:52;100364.56;;;30.82;100.00
46087;BME280;31824;49.648;8.640;2023-09-08T15:31:55;100371.69;;;30.72;100.00
46087;BME280;31824;49.648;8.640;2023-09-08T15:34:57;100369.72;;;30.60;100.00
46087;BME280;31824;49.648;8.640;2023-09-08T15:37:59;100359.19;;;30.90;100.00
46087;BME280;31824;49.648;8.640;2023-09-08T15:41:15;100358.16;;;30.77;100.00
46087;BME280;31824;49.648;8.640;2023-09-08T15:44:19;100363.91;;;30.36;100.00
46087;BME280;31824;49.648;8.640;2023-09-08T15:47:22;100360.84;;;30.74;100.00
46087;BME280;31824;49.648;8.640;2023-09-08T15:50:23;100355.28;;;30.64;100.00
46087;BME280;31824;49.648;8.640;2023-09-08T15:53:25;100357.25;;;30.15;100.00